createdAt,value
2023-03-31T00:00:44.932Z,10.81
2023-03-31T00:01:44.785Z,10.81
2023-03-31T00:02:44.861Z,10.82
2023-03-31T00:03:45.853Z,10.84
2023-03-31T00:04:44.855Z,10.82
2023-03-31T00:05:44.731Z,10.84
2023-03-31T00:06:44.691Z,10.81
2023-03-31T00:07:44.760Z,10.81
2023-03-31T00:08:44.793Z,10.79
2023-03-31T00:09:45.791Z,10.79
2023-03-31T00:10:44.747Z,10.79
2023-03-31T00:11:45.597Z,10.79
2023-03-31T00:12:44.720Z,10.79
2023-03-31T00:13:44.592Z,10.78
2023-03-31T00:14:45.555Z,10.79
2023-03-31T00:15:45.684Z,10.79
2023-03-31T00:16:45.411Z,10.79
2023-03-31T00:17:44.664Z,10.82
2023-03-31T00:18:44.565Z,10.84
2023-03-31T00:19:44.598Z,10.84
2023-03-31T00:20:45.640Z,10.84
2023-03-31T00:21:44.538Z,10.81
2023-03-31T00:22:44.557Z,10.82
2023-03-31T00:23:44.493Z,10.82
2023-03-31T00:24:44.500Z,10.82
2023-03-31T00:25:44.540Z,10.81
2023-03-31T00:26:45.438Z,10.82
2023-03-31T00:27:44.545Z,10.84
2023-03-31T00:28:44.392Z,10.84
2023-03-31T00:29:44.505Z,10.86
2023-03-31T00:30:45.317Z,10.86
2023-03-31T00:31:45.366Z,10.86
2023-03-31T00:32:44.357Z,10.84
2023-03-31T00:33:44.382Z,10.84
2023-03-31T00:34:44.358Z,10.86
2023-03-31T00:35:47.090Z,10.87
2023-03-31T00:36:45.365Z,10.89
2023-03-31T00:37:44.365Z,10.90
2023-03-31T00:38:44.312Z,10.89
2023-03-31T00:39:44.393Z,10.89
2023-03-31T00:40:44.265Z,10.90
2023-03-31T00:41:44.299Z,10.92
2023-03-31T00:42:45.226Z,10.90
2023-03-31T00:43:44.260Z,10.92
2023-03-31T00:44:44.219Z,10.90
2023-03-31T00:45:44.197Z,10.89
2023-03-31T00:46:44.161Z,10.89
2023-03-31T00:47:44.372Z,10.87
2023-03-31T00:48:45.081Z,10.86
2023-03-31T00:49:44.221Z,10.87
2023-03-31T00:50:44.102Z,10.86
2023-03-31T00:51:44.207Z,10.89
2023-03-31T00:52:45.552Z,10.87
2023-03-31T00:53:44.047Z,10.87
2023-03-31T00:54:45.029Z,10.84
2023-03-31T00:55:44.033Z,10.82
2023-03-31T00:56:44.054Z,10.81
2023-03-31T00:57:43.973Z,10.79
2023-03-31T00:58:44.132Z,10.78
2023-03-31T00:59:43.956Z,10.75
2023-03-31T01:00:44.911Z,10.75
2023-03-31T01:01:44.038Z,10.74
2023-03-31T01:02:43.968Z,10.75
2023-03-31T01:03:44.052Z,10.72
2023-03-31T01:04:44.193Z,10.72
2023-03-31T01:05:44.091Z,10.72
2023-03-31T01:06:44.892Z,10.74
2023-03-31T01:07:43.924Z,10.75
2023-03-31T01:08:44.023Z,10.74
2023-03-31T01:09:43.848Z,10.74
2023-03-31T01:10:44.011Z,10.74
2023-03-31T01:11:44.731Z,10.71
2023-03-31T01:12:43.815Z,10.69
2023-03-31T01:13:43.811Z,10.68
2023-03-31T01:14:43.888Z,10.64
2023-03-31T01:15:43.769Z,10.63
2023-03-31T01:16:43.839Z,10.61
2023-03-31T01:17:44.960Z,10.61
2023-03-31T01:18:43.843Z,10.63
2023-03-31T01:19:43.818Z,10.60
2023-03-31T01:20:43.751Z,10.60
2023-03-31T01:21:43.764Z,10.60
2023-03-31T01:22:43.759Z,10.60
2023-03-31T01:23:44.630Z,10.59
2023-03-31T01:24:43.714Z,10.59
2023-03-31T01:25:43.667Z,10.54
2023-03-31T01:26:43.646Z,10.53
2023-03-31T01:27:43.657Z,10.49
2023-03-31T01:28:44.575Z,10.48
2023-03-31T01:29:43.662Z,10.46
2023-03-31T01:30:43.634Z,10.49
2023-03-31T01:31:43.736Z,10.46
2023-03-31T01:32:43.643Z,10.46
2023-03-31T01:33:43.517Z,10.44
2023-03-31T01:34:44.490Z,10.44
2023-03-31T01:35:43.673Z,10.42
2023-03-31T01:36:43.592Z,10.40
2023-03-31T01:37:43.501Z,10.40
2023-03-31T01:38:43.549Z,10.37
2023-03-31T01:39:44.375Z,10.38
2023-03-31T01:40:43.520Z,10.37
2023-03-31T01:41:43.493Z,10.35
2023-03-31T01:42:43.417Z,10.37
2023-03-31T01:43:43.439Z,10.37
2023-03-31T01:44:44.348Z,10.38
2023-03-31T01:45:43.454Z,10.37
2023-03-31T01:46:43.415Z,10.37
2023-03-31T01:47:43.368Z,10.37
2023-03-31T01:48:43.444Z,10.35
2023-03-31T01:49:44.317Z,10.35
2023-03-31T01:50:43.295Z,10.34
2023-03-31T01:51:43.412Z,10.35
2023-03-31T01:52:43.336Z,10.34
2023-03-31T01:53:44.271Z,10.33
2023-03-31T01:54:43.988Z,10.31
2023-03-31T01:55:47.094Z,10.31
2023-03-31T01:56:43.261Z,10.31
2023-03-31T01:57:43.232Z,10.33
2023-03-31T01:58:43.193Z,10.30
2023-03-31T01:59:45.149Z,10.31
2023-03-31T02:00:43.208Z,10.30
2023-03-31T02:01:44.153Z,10.31
2023-03-31T02:02:44.271Z,10.31
2023-03-31T02:03:43.300Z,10.31
2023-03-31T02:04:43.407Z,10.33
2023-03-31T02:05:44.063Z,10.33
2023-03-31T02:06:44.069Z,10.34
2023-03-31T02:07:43.052Z,10.34
2023-03-31T02:08:43.149Z,10.34
2023-03-31T02:09:46.037Z,10.33
2023-03-31T02:10:43.116Z,10.31
2023-03-31T02:11:43.966Z,10.33
2023-03-31T02:12:43.073Z,10.31
2023-03-31T02:13:44.549Z,10.31
2023-03-31T02:14:43.053Z,10.28
2023-03-31T02:15:43.004Z,10.28
2023-03-31T02:16:43.022Z,10.23
2023-03-31T02:17:43.975Z,10.25
2023-03-31T02:18:42.960Z,10.26
2023-03-31T02:19:43.956Z,10.28
2023-03-31T02:20:43.893Z,10.26
2023-03-31T02:21:42.904Z,10.28
2023-03-31T02:22:43.885Z,10.30
2023-03-31T02:23:42.898Z,10.31
2023-03-31T02:24:42.844Z,10.34
2023-03-31T02:25:42.848Z,10.37
2023-03-31T02:26:42.867Z,10.38
2023-03-31T02:27:43.731Z,10.41
2023-03-31T02:28:42.849Z,10.40
2023-03-31T02:29:42.776Z,10.40
2023-03-31T02:30:43.464Z,10.38
2023-03-31T02:31:42.912Z,10.38
2023-03-31T02:32:42.788Z,10.38
2023-03-31T02:33:43.708Z,10.40
2023-03-31T02:34:42.762Z,10.41
2023-03-31T02:35:43.815Z,10.41
2023-03-31T02:36:42.910Z,10.41
2023-03-31T02:37:42.701Z,10.41
2023-03-31T02:38:42.744Z,10.42
2023-03-31T02:39:43.631Z,10.44
2023-03-31T02:40:42.697Z,10.44
2023-03-31T02:41:42.761Z,10.46
2023-03-31T02:42:43.584Z,10.48
2023-03-31T02:43:42.753Z,10.49
2023-03-31T02:45:43.523Z,10.49
2023-03-31T02:46:43.443Z,10.51
2023-03-31T02:47:43.446Z,10.49
2023-03-31T02:48:43.411Z,10.49
2023-03-31T02:49:43.382Z,10.49
2023-03-31T02:50:44.313Z,10.49
2023-03-31T02:51:43.363Z,10.51
2023-03-31T02:52:43.381Z,10.51
2023-03-31T02:53:43.319Z,10.51
2023-03-31T02:54:43.382Z,10.49
2023-03-31T02:55:44.281Z,10.48
2023-03-31T02:56:43.417Z,10.48
2023-03-31T02:57:43.320Z,10.46
2023-03-31T02:58:43.312Z,10.46
2023-03-31T02:59:43.252Z,10.46
2023-03-31T03:00:43.254Z,10.48
2023-03-31T03:01:44.252Z,10.46
2023-03-31T03:02:43.298Z,10.46
2023-03-31T03:03:43.188Z,10.46
2023-03-31T03:04:43.180Z,10.44
2023-03-31T03:05:43.189Z,10.46
2023-03-31T03:06:44.119Z,10.48
2023-03-31T03:07:43.310Z,10.49
2023-03-31T03:08:43.114Z,10.51
2023-03-31T03:09:43.151Z,10.53
2023-03-31T03:10:43.104Z,10.54
2023-03-31T03:11:44.025Z,10.56
2023-03-31T03:12:43.123Z,10.57
2023-03-31T03:13:43.081Z,10.59
2023-03-31T03:14:43.051Z,10.60
2023-03-31T03:15:43.046Z,10.64
2023-03-31T03:16:43.178Z,10.61
2023-03-31T03:17:44.061Z,10.61
2023-03-31T03:18:43.026Z,10.61
2023-03-31T03:19:43.015Z,10.63
2023-03-31T03:20:42.974Z,10.61
2023-03-31T03:21:42.944Z,10.63
2023-03-31T03:22:43.892Z,10.60
2023-03-31T03:23:42.944Z,10.59
2023-03-31T03:24:42.948Z,10.56
2023-03-31T03:25:42.896Z,10.53
2023-03-31T03:26:42.916Z,10.48
2023-03-31T03:27:42.877Z,10.46
2023-03-31T03:28:43.842Z,10.48
2023-03-31T03:29:42.885Z,10.49
2023-03-31T03:30:42.915Z,10.48
2023-03-31T03:31:42.904Z,10.44
2023-03-31T03:32:42.893Z,10.46
2023-03-31T03:33:42.800Z,10.46
2023-03-31T03:34:43.746Z,10.49
2023-03-31T03:35:42.900Z,10.51
2023-03-31T03:36:42.807Z,10.51
2023-03-31T03:37:42.764Z,10.53
2023-03-31T03:38:42.771Z,10.54
2023-03-31T03:39:42.750Z,10.56
2023-03-31T03:40:43.667Z,10.59
2023-03-31T03:41:42.728Z,10.57
2023-03-31T03:42:42.716Z,10.59
2023-03-31T03:43:42.718Z,10.57
2023-03-31T03:44:42.657Z,10.57
2023-03-31T03:45:43.581Z,10.59
2023-03-31T03:46:42.694Z,10.59
2023-03-31T03:47:42.703Z,10.60
2023-03-31T03:48:42.635Z,10.60
2023-03-31T03:49:42.646Z,10.59
2023-03-31T03:50:43.577Z,10.61
2023-03-31T03:51:42.612Z,10.63
2023-03-31T03:52:42.608Z,10.61
2023-03-31T03:53:42.568Z,10.61
2023-03-31T03:54:42.541Z,10.61
2023-03-31T03:55:43.433Z,10.60
2023-03-31T03:56:42.577Z,10.61
2023-03-31T03:57:42.603Z,10.60
2023-03-31T03:58:42.512Z,10.60
2023-03-31T03:59:42.463Z,10.60
2023-03-31T04:00:42.443Z,10.61
2023-03-31T04:01:43.404Z,10.63
2023-03-31T04:02:42.495Z,10.61
2023-03-31T04:03:42.467Z,10.60
2023-03-31T04:04:42.504Z,10.61
2023-03-31T04:05:42.395Z,10.61
2023-03-31T04:06:43.359Z,10.63
2023-03-31T04:07:42.391Z,10.60
2023-03-31T04:08:42.345Z,10.60
2023-03-31T04:09:42.395Z,10.63
2023-03-31T04:10:42.347Z,10.63
2023-03-31T04:11:43.237Z,10.67
2023-03-31T04:12:42.295Z,10.68
2023-03-31T04:13:42.321Z,10.68
2023-03-31T04:14:42.270Z,10.68
2023-03-31T04:15:42.337Z,10.67
2023-03-31T04:16:43.194Z,10.68
2023-03-31T04:17:42.239Z,10.64
2023-03-31T04:18:42.317Z,10.63
2023-03-31T04:19:42.276Z,10.63
2023-03-31T04:20:42.188Z,10.61
2023-03-31T04:21:42.207Z,10.60
2023-03-31T04:22:48.618Z,10.60
2023-03-31T04:23:42.143Z,10.60
2023-03-31T04:24:42.133Z,10.60
2023-03-31T04:25:42.187Z,10.60
2023-03-31T04:26:42.127Z,10.60
2023-03-31T04:27:42.094Z,10.61
2023-03-31T04:28:48.407Z,10.61
2023-03-31T04:29:42.113Z,10.61
2023-03-31T04:30:42.091Z,10.61
2023-03-31T04:31:42.093Z,10.63
2023-03-31T04:32:42.075Z,10.67
2023-03-31T04:33:42.048Z,10.67
2023-03-31T04:34:42.993Z,10.68
2023-03-31T04:35:42.000Z,10.67
2023-03-31T04:36:41.984Z,10.63
2023-03-31T04:37:41.977Z,10.60
2023-03-31T04:38:41.963Z,10.59
2023-03-31T04:39:42.871Z,10.59
2023-03-31T04:40:41.964Z,10.54
2023-03-31T04:41:41.912Z,10.56
2023-03-31T04:42:41.884Z,10.54
2023-03-31T04:43:41.916Z,10.56
2023-03-31T04:44:41.877Z,10.56
2023-03-31T04:45:42.806Z,10.57
2023-03-31T04:46:41.846Z,10.59
2023-03-31T04:47:41.902Z,10.57
2023-03-31T04:48:41.839Z,10.54
2023-03-31T04:49:41.826Z,10.54
2023-03-31T04:50:48.043Z,10.53
2023-03-31T04:51:41.785Z,10.53
2023-03-31T04:52:41.778Z,10.53
2023-03-31T04:53:41.792Z,10.54
2023-03-31T04:54:41.840Z,10.53
2023-03-31T04:55:41.783Z,10.54
2023-03-31T04:56:42.747Z,10.53
2023-03-31T04:57:41.709Z,10.49
2023-03-31T04:58:41.691Z,10.48
2023-03-31T04:59:41.698Z,10.42
2023-03-31T05:00:42.067Z,10.41
2023-03-31T05:01:42.692Z,10.40
2023-03-31T05:02:41.689Z,10.38
2023-03-31T05:03:41.679Z,10.37
2023-03-31T05:04:41.630Z,10.35
2023-03-31T05:05:41.634Z,10.33
2023-03-31T05:06:41.670Z,10.31
2023-03-31T05:07:42.586Z,10.28
2023-03-31T05:08:41.557Z,10.28
2023-03-31T05:09:41.554Z,10.26
2023-03-31T05:10:41.556Z,10.28
2023-03-31T05:11:41.563Z,10.28
2023-03-31T05:12:41.514Z,10.26
2023-03-31T05:13:42.459Z,10.28
2023-03-31T05:14:41.519Z,10.28
2023-03-31T05:15:41.583Z,10.26
2023-03-31T05:16:41.610Z,10.28
2023-03-31T05:17:41.487Z,10.26
2023-03-31T05:18:41.439Z,10.30
2023-03-31T05:19:42.392Z,10.30
2023-03-31T05:20:41.443Z,10.31
2023-03-31T05:21:41.402Z,10.30
2023-03-31T05:22:43.317Z,10.31
2023-03-31T05:23:41.368Z,10.31
2023-03-31T05:24:41.468Z,10.30
2023-03-31T05:25:42.305Z,10.30
2023-03-31T05:26:41.323Z,10.28
2023-03-31T05:27:41.364Z,10.26
2023-03-31T05:28:41.364Z,10.28
2023-03-31T05:29:41.308Z,10.26
2023-03-31T05:30:41.279Z,10.25
2023-03-31T05:31:42.220Z,10.25
2023-03-31T05:32:41.343Z,10.26
2023-03-31T05:33:41.852Z,10.26
2023-03-31T05:34:41.452Z,10.30
2023-03-31T05:35:41.234Z,10.31
2023-03-31T05:36:41.219Z,10.33
2023-03-31T05:37:42.099Z,10.34
2023-03-31T05:38:41.213Z,10.37
2023-03-31T05:39:41.204Z,10.38
2023-03-31T05:40:41.165Z,10.38
2023-03-31T05:41:41.178Z,10.42
2023-03-31T05:42:42.154Z,10.46
2023-03-31T05:43:41.106Z,10.51
2023-03-31T05:44:41.120Z,10.53
2023-03-31T05:45:41.071Z,10.56
2023-03-31T05:46:41.189Z,10.61
2023-03-31T05:47:42.067Z,10.64
2023-03-31T05:48:41.183Z,10.67
2023-03-31T05:49:41.083Z,10.68
2023-03-31T05:50:41.082Z,10.68
2023-03-31T05:51:41.032Z,10.69
2023-03-31T05:52:41.961Z,10.71
2023-03-31T05:53:41.025Z,10.74
2023-03-31T05:54:40.992Z,10.75
2023-03-31T05:55:40.963Z,10.72
2023-03-31T05:56:40.969Z,10.71
2023-03-31T05:57:40.953Z,10.72
2023-03-31T05:58:41.934Z,10.72
2023-03-31T05:59:40.918Z,10.71
2023-03-31T06:00:40.906Z,10.69
2023-03-31T06:01:41.016Z,10.69
2023-03-31T06:02:40.964Z,10.68
2023-03-31T06:03:41.924Z,10.69
2023-03-31T06:04:40.976Z,10.68
2023-03-31T06:05:40.852Z,10.69
2023-03-31T06:06:40.856Z,10.69
2023-03-31T06:07:40.802Z,10.68
2023-03-31T06:08:40.848Z,10.68
2023-03-31T06:09:41.713Z,10.68
2023-03-31T06:10:40.797Z,10.67
2023-03-31T06:11:40.759Z,10.68
2023-03-31T06:12:40.786Z,10.69
2023-03-31T06:13:40.793Z,10.68
2023-03-31T06:14:41.711Z,10.68
2023-03-31T06:15:40.738Z,10.64
2023-03-31T06:16:40.712Z,10.67
2023-03-31T06:17:40.731Z,10.64
2023-03-31T06:18:40.717Z,10.64
2023-03-31T06:19:40.647Z,10.68
2023-03-31T06:20:41.613Z,10.68
2023-03-31T06:21:40.635Z,10.71
2023-03-31T06:22:40.597Z,10.69
2023-03-31T06:23:40.915Z,10.71
2023-03-31T06:24:40.618Z,10.72
2023-03-31T06:25:50.389Z,10.74
2023-03-31T06:26:43.036Z,10.74
2023-03-31T06:27:40.581Z,10.74
2023-03-31T06:28:40.547Z,10.76
2023-03-31T06:29:40.551Z,10.79
2023-03-31T06:30:40.526Z,10.78
2023-03-31T06:31:41.449Z,10.76
2023-03-31T06:32:40.550Z,10.78
2023-03-31T06:33:40.472Z,10.78
2023-03-31T06:34:40.467Z,10.78
2023-03-31T06:35:40.488Z,10.79
2023-03-31T06:36:41.377Z,10.84
2023-03-31T06:37:40.437Z,10.89
2023-03-31T06:38:40.409Z,10.93
2023-03-31T06:39:40.373Z,10.97
2023-03-31T06:40:40.442Z,11.00
2023-03-31T06:41:40.379Z,11.04
2023-03-31T06:42:41.291Z,11.07
2023-03-31T06:43:40.346Z,11.12
2023-03-31T06:44:40.362Z,11.15
2023-03-31T06:45:40.347Z,11.17
2023-03-31T06:46:40.335Z,11.22
2023-03-31T06:47:41.255Z,11.29
2023-03-31T06:48:40.330Z,11.35
2023-03-31T06:49:40.295Z,11.41
2023-03-31T06:50:40.232Z,11.44
2023-03-31T06:51:40.264Z,11.48
2023-03-31T06:52:40.247Z,11.51
2023-03-31T06:53:41.146Z,11.54
2023-03-31T06:54:40.176Z,11.57
2023-03-31T06:55:40.184Z,11.62
2023-03-31T06:56:40.199Z,11.65
2023-03-31T06:57:40.155Z,11.68
2023-03-31T06:58:42.019Z,11.73
2023-03-31T06:59:40.161Z,11.75
2023-03-31T07:00:40.143Z,11.80
2023-03-31T07:01:40.167Z,11.83
2023-03-31T07:02:40.222Z,11.87
2023-03-31T07:03:40.163Z,11.95
2023-03-31T07:04:41.007Z,12.00
2023-03-31T07:05:40.053Z,12.03
2023-03-31T07:06:40.126Z,12.02
2023-03-31T07:07:40.144Z,12.00
2023-03-31T07:08:40.051Z,12.03
2023-03-31T07:09:40.927Z,12.04
2023-03-31T07:10:40.023Z,12.06
2023-03-31T07:11:39.985Z,12.03
2023-03-31T07:12:39.971Z,12.06
2023-03-31T07:13:40.002Z,12.09
2023-03-31T07:14:39.938Z,12.15
2023-03-31T07:15:40.848Z,12.22
2023-03-31T07:16:40.038Z,12.28
2023-03-31T07:17:39.937Z,12.36
2023-03-31T07:18:41.406Z,12.40
2023-03-31T07:19:40.758Z,12.42
2023-03-31T07:20:40.794Z,12.43
2023-03-31T07:21:39.833Z,12.45
2023-03-31T07:22:39.860Z,12.46
2023-03-31T07:23:39.810Z,12.47
2023-03-31T07:24:39.794Z,12.49
2023-03-31T07:25:39.857Z,12.54
2023-03-31T07:26:40.734Z,12.58
2023-03-31T07:27:39.751Z,12.61
2023-03-31T07:28:39.780Z,12.62
2023-03-31T07:29:39.747Z,12.67
2023-03-31T07:30:39.746Z,12.70
2023-03-31T07:31:39.756Z,12.72
2023-03-31T07:32:40.754Z,12.75
2023-03-31T07:33:39.720Z,12.72
2023-03-31T07:34:39.693Z,12.70
2023-03-31T07:35:39.670Z,12.67
2023-03-31T07:36:39.685Z,12.68
2023-03-31T07:37:40.623Z,12.65
2023-03-31T07:38:39.628Z,12.67
2023-03-31T07:39:39.634Z,12.72
2023-03-31T07:40:39.585Z,12.73
2023-03-31T07:41:39.581Z,12.75
2023-03-31T07:42:40.540Z,12.79
2023-03-31T07:43:39.559Z,12.80
2023-03-31T07:44:39.566Z,12.85
2023-03-31T07:45:39.606Z,12.91
2023-03-31T07:46:39.606Z,12.98
2023-03-31T07:47:40.524Z,13.09
2023-03-31T07:48:39.510Z,13.23
2023-03-31T07:49:39.495Z,13.38
2023-03-31T07:50:39.501Z,13.52
2023-03-31T07:51:39.451Z,13.59
2023-03-31T07:52:39.494Z,13.65
2023-03-31T07:53:40.410Z,13.72
2023-03-31T07:54:39.468Z,13.81
2023-03-31T07:55:39.373Z,13.89
2023-03-31T07:56:39.363Z,14.00
2023-03-31T07:57:39.372Z,14.04
2023-03-31T07:58:40.292Z,14.04
2023-03-31T07:59:39.353Z,14.07
2023-03-31T08:00:39.353Z,14.12
2023-03-31T08:01:39.332Z,14.22
2023-03-31T08:02:39.439Z,14.37
2023-03-31T08:03:39.373Z,14.43
2023-03-31T08:04:40.257Z,14.44
2023-03-31T08:05:39.369Z,14.40
2023-03-31T08:06:39.290Z,14.36
2023-03-31T08:07:39.328Z,14.32
2023-03-31T08:08:39.236Z,14.28
2023-03-31T08:09:40.165Z,14.29
2023-03-31T08:10:39.198Z,14.28
2023-03-31T08:11:39.237Z,14.22
2023-03-31T08:12:39.181Z,14.23
2023-03-31T08:13:39.178Z,14.25
2023-03-31T08:14:41.686Z,14.22
2023-03-31T08:15:40.096Z,14.22
2023-03-31T08:16:39.229Z,14.20
2023-03-31T08:17:39.193Z,14.20
2023-03-31T08:18:39.143Z,14.17
2023-03-31T08:19:39.127Z,14.12
2023-03-31T08:20:39.126Z,14.10
2023-03-31T08:21:40.067Z,14.07
2023-03-31T08:22:39.077Z,14.08
2023-03-31T08:23:39.061Z,14.14
2023-03-31T08:24:39.019Z,14.15
2023-03-31T08:25:39.014Z,14.18
2023-03-31T08:26:39.048Z,14.18
2023-03-31T08:27:39.937Z,14.17
2023-03-31T08:28:38.993Z,14.18
2023-03-31T08:29:38.949Z,14.20
2023-03-31T08:30:38.952Z,14.22
2023-03-31T08:31:39.035Z,14.23
2023-03-31T08:32:39.919Z,14.22
2023-03-31T08:33:39.155Z,14.20
2023-03-31T08:34:39.577Z,14.23
2023-03-31T08:35:38.947Z,14.18
2023-03-31T08:36:38.854Z,14.15
2023-03-31T08:37:38.885Z,14.17
2023-03-31T08:38:39.775Z,14.23
2023-03-31T08:39:38.862Z,14.28
2023-03-31T08:40:38.809Z,14.35
2023-03-31T08:41:38.801Z,14.40
2023-03-31T08:42:38.789Z,14.41
2023-03-31T08:43:39.741Z,14.50
2023-03-31T08:44:38.771Z,14.59
2023-03-31T08:45:38.775Z,14.58
2023-03-31T08:46:38.836Z,14.55
2023-03-31T08:47:38.821Z,14.48
2023-03-31T08:48:38.740Z,14.45
2023-03-31T08:49:39.649Z,14.37
2023-03-31T08:50:38.697Z,14.40
2023-03-31T08:51:38.657Z,14.40
2023-03-31T08:52:38.644Z,14.41
2023-03-31T08:53:38.642Z,14.43
2023-03-31T08:54:39.565Z,14.43
2023-03-31T08:55:38.661Z,14.43
2023-03-31T08:56:38.629Z,14.43
2023-03-31T08:57:38.593Z,14.40
2023-03-31T08:58:38.632Z,14.41
2023-03-31T08:59:38.558Z,14.51
2023-03-31T09:00:39.515Z,14.54
2023-03-31T09:01:52.292Z,14.63
2023-03-31T09:02:40.143Z,14.78
2023-03-31T09:03:38.700Z,14.89
2023-03-31T09:04:38.514Z,14.99
2023-03-31T09:05:46.108Z,15.03
2023-03-31T09:06:40.916Z,15.10
2023-03-31T09:07:38.470Z,15.21
2023-03-31T09:08:38.493Z,15.33
2023-03-31T09:09:38.458Z,15.42
2023-03-31T09:10:38.417Z,15.52
2023-03-31T09:11:39.347Z,15.57
2023-03-31T09:12:38.392Z,15.75
2023-03-31T09:13:38.405Z,15.86
2023-03-31T09:14:38.406Z,15.84
2023-03-31T09:15:38.354Z,15.97
2023-03-31T09:16:38.388Z,16.09
2023-03-31T09:17:39.295Z,16.23
2023-03-31T09:18:38.346Z,16.39
2023-03-31T09:19:38.449Z,16.51
2023-03-31T09:20:38.308Z,16.51
2023-03-31T09:21:38.300Z,16.57
2023-03-31T09:22:38.300Z,16.65
2023-03-31T09:23:39.187Z,16.56
2023-03-31T09:24:38.249Z,16.53
2023-03-31T09:25:38.247Z,16.53
2023-03-31T09:26:38.212Z,16.53
2023-03-31T09:27:38.268Z,16.51
2023-03-31T09:28:38.210Z,16.51
2023-03-31T09:29:40.947Z,16.35
2023-03-31T09:30:38.168Z,16.33
2023-03-31T09:31:38.191Z,16.46
2023-03-31T09:32:39.067Z,16.68
2023-03-31T09:33:38.121Z,16.93
2023-03-31T09:34:38.130Z,17.16
2023-03-31T09:35:39.058Z,17.27
2023-03-31T09:36:38.465Z,17.42
2023-03-31T09:37:38.123Z,17.45
2023-03-31T09:38:38.106Z,17.41
2023-03-31T09:39:38.088Z,17.15
2023-03-31T09:40:38.091Z,16.91
2023-03-31T09:41:38.975Z,16.78
2023-03-31T09:42:38.040Z,16.69
2023-03-31T09:43:38.021Z,16.72
2023-03-31T09:44:38.036Z,16.75
2023-03-31T09:45:38.024Z,16.76
2023-03-31T09:46:37.994Z,16.78
2023-03-31T09:47:38.944Z,16.72
2023-03-31T09:48:37.944Z,16.54
2023-03-31T09:49:38.010Z,16.50
2023-03-31T09:50:38.004Z,16.39
2023-03-31T09:51:38.033Z,16.29
2023-03-31T09:52:38.109Z,16.26
2023-03-31T09:53:38.883Z,16.15
2023-03-31T09:54:37.875Z,15.90
2023-03-31T09:55:40.154Z,15.64
2023-03-31T09:56:37.845Z,15.42
2023-03-31T09:57:37.932Z,15.22
2023-03-31T09:58:38.735Z,15.04
2023-03-31T09:59:37.800Z,14.92
2023-03-31T10:00:37.792Z,14.84
2023-03-31T10:01:37.891Z,14.81
2023-03-31T10:02:37.878Z,14.82
2023-03-31T10:03:38.746Z,14.79
2023-03-31T10:04:37.862Z,14.70
2023-03-31T10:05:37.772Z,14.63
2023-03-31T10:06:37.756Z,14.62
2023-03-31T10:07:37.731Z,14.59
2023-03-31T10:08:37.713Z,14.58
2023-03-31T10:09:38.594Z,14.60
2023-03-31T10:10:37.690Z,14.65
2023-03-31T10:11:37.702Z,14.63
2023-03-31T10:12:37.696Z,14.58
2023-03-31T10:13:37.671Z,14.50
2023-03-31T10:14:38.549Z,14.43
2023-03-31T10:15:38.746Z,14.32
2023-03-31T10:16:37.636Z,14.23
2023-03-31T10:17:47.219Z,14.20
2023-03-31T10:18:39.074Z,14.23
2023-03-31T10:19:38.484Z,14.23
2023-03-31T10:20:37.568Z,14.37
2023-03-31T10:21:37.551Z,14.50
2023-03-31T10:22:37.513Z,14.69
2023-03-31T10:23:37.537Z,14.88
2023-03-31T10:24:37.519Z,15.10
2023-03-31T10:25:38.398Z,15.28
2023-03-31T10:26:37.473Z,15.37
2023-03-31T10:27:37.490Z,15.42
2023-03-31T10:28:37.451Z,15.43
2023-03-31T10:29:37.443Z,15.57
2023-03-31T10:30:37.404Z,15.67
2023-03-31T10:31:38.348Z,15.72
2023-03-31T10:32:37.403Z,15.68
2023-03-31T10:33:37.592Z,15.70
2023-03-31T10:34:37.359Z,15.68
2023-03-31T10:35:37.377Z,15.76
2023-03-31T10:36:38.237Z,15.75
2023-03-31T10:37:38.369Z,15.65
2023-03-31T10:38:38.274Z,15.57
2023-03-31T10:39:37.295Z,15.47
2023-03-31T10:40:37.305Z,15.43
2023-03-31T10:41:37.262Z,15.39
2023-03-31T10:42:38.167Z,15.35
2023-03-31T10:43:37.254Z,15.29
2023-03-31T10:44:37.235Z,15.14
2023-03-31T10:45:38.498Z,15.06
2023-03-31T10:46:37.248Z,14.97
2023-03-31T10:47:38.142Z,14.94
2023-03-31T10:48:37.172Z,14.85
2023-03-31T10:49:37.161Z,14.82
2023-03-31T10:50:37.180Z,14.82
2023-03-31T10:51:37.140Z,14.78
2023-03-31T10:52:37.105Z,14.79
2023-03-31T10:53:38.072Z,14.79
2023-03-31T10:54:37.082Z,14.79
2023-03-31T10:55:37.062Z,14.79
2023-03-31T10:56:37.046Z,14.94
2023-03-31T10:57:37.131Z,15.00
2023-03-31T10:58:37.966Z,15.00
2023-03-31T10:59:37.044Z,14.91
2023-03-31T11:00:37.100Z,14.94
2023-03-31T11:01:37.067Z,15.02
2023-03-31T11:02:37.044Z,15.04
2023-03-31T11:03:37.011Z,15.04
2023-03-31T11:04:38.009Z,15.02
2023-03-31T11:05:36.987Z,15.06
2023-03-31T11:06:36.939Z,15.17
2023-03-31T11:07:36.951Z,15.18
2023-03-31T11:08:36.929Z,15.15
2023-03-31T11:09:37.830Z,15.10
2023-03-31T11:10:36.918Z,15.02
2023-03-31T11:11:36.922Z,15.00
2023-03-31T11:12:36.845Z,15.07
2023-03-31T11:13:36.939Z,15.25
2023-03-31T11:14:36.845Z,15.43
2023-03-31T11:15:37.815Z,15.64
2023-03-31T11:16:36.884Z,15.77
2023-03-31T11:17:36.845Z,15.92
2023-03-31T11:18:36.808Z,16.23
2023-03-31T11:19:36.797Z,16.71
2023-03-31T11:20:37.727Z,16.94
2023-03-31T11:21:36.812Z,16.93
2023-03-31T11:22:36.720Z,16.84
2023-03-31T11:23:36.756Z,16.69
2023-03-31T11:24:36.741Z,16.53
2023-03-31T11:25:42.960Z,16.54
2023-03-31T11:26:36.697Z,16.60
2023-03-31T11:27:36.668Z,16.66
2023-03-31T11:28:36.663Z,16.66
2023-03-31T11:29:36.635Z,16.54
2023-03-31T11:30:36.642Z,16.49
2023-03-31T11:31:37.618Z,16.49
2023-03-31T11:32:36.667Z,16.51
2023-03-31T11:33:36.577Z,16.56
2023-03-31T11:34:36.571Z,16.65
2023-03-31T11:35:36.586Z,16.69
2023-03-31T11:36:37.498Z,16.64
2023-03-31T11:37:36.578Z,16.57
2023-03-31T11:38:36.532Z,16.47
2023-03-31T11:39:36.523Z,16.35
2023-03-31T11:40:36.522Z,16.29
2023-03-31T11:41:36.514Z,16.20
2023-03-31T11:42:37.417Z,16.02
2023-03-31T11:43:36.494Z,16.00
2023-03-31T11:44:36.448Z,16.04
2023-03-31T11:45:36.409Z,16.09
2023-03-31T11:46:36.478Z,16.10
2023-03-31T11:47:37.388Z,16.13
2023-03-31T11:48:36.455Z,16.17
2023-03-31T11:49:36.412Z,16.16
2023-03-31T11:50:36.427Z,16.20
2023-03-31T11:51:36.354Z,16.17
2023-03-31T11:52:36.349Z,16.10
2023-03-31T11:53:37.311Z,16.05
2023-03-31T11:54:36.326Z,16.01
2023-03-31T11:55:36.310Z,15.88
2023-03-31T11:56:36.319Z,15.67
2023-03-31T11:57:36.340Z,15.58
2023-03-31T11:58:36.259Z,15.46
2023-03-31T11:59:37.240Z,15.43
2023-03-31T12:00:36.234Z,15.39
2023-03-31T12:01:36.290Z,15.33
2023-03-31T12:02:36.252Z,15.25
2023-03-31T12:03:36.332Z,15.19
2023-03-31T12:04:37.135Z,15.15
2023-03-31T12:05:36.181Z,15.07
2023-03-31T12:06:36.175Z,14.94
2023-03-31T12:07:36.169Z,14.79
2023-03-31T12:08:36.204Z,14.58
2023-03-31T12:09:37.085Z,14.45
2023-03-31T12:10:36.127Z,14.47
2023-03-31T12:11:36.093Z,14.51
2023-03-31T12:12:36.069Z,14.65
2023-03-31T12:13:36.093Z,14.77
2023-03-31T12:14:36.080Z,14.78
2023-03-31T12:15:37.016Z,14.92
2023-03-31T12:16:36.198Z,15.00
2023-03-31T12:17:36.117Z,15.06
2023-03-31T12:18:36.011Z,15.06
2023-03-31T12:19:36.000Z,14.97
2023-03-31T12:20:36.918Z,15.00
2023-03-31T12:21:35.950Z,15.00
2023-03-31T12:22:35.993Z,14.92
2023-03-31T12:23:35.937Z,14.85
2023-03-31T12:24:35.974Z,14.84
2023-03-31T12:25:36.866Z,14.79
2023-03-31T12:26:35.885Z,14.77
2023-03-31T12:27:35.929Z,14.99
2023-03-31T12:28:35.876Z,15.04
2023-03-31T12:29:35.861Z,15.09
2023-03-31T12:30:35.843Z,15.10
2023-03-31T12:31:36.867Z,15.15
2023-03-31T12:32:35.861Z,15.10
2023-03-31T12:33:35.849Z,15.11
2023-03-31T12:34:35.833Z,15.15
2023-03-31T12:35:35.831Z,15.14
2023-03-31T12:36:36.701Z,15.07
2023-03-31T12:37:35.743Z,15.06
2023-03-31T12:38:35.745Z,15.02
2023-03-31T12:39:35.778Z,14.94
2023-03-31T12:40:35.701Z,14.92
2023-03-31T12:41:35.721Z,14.88
2023-03-31T12:42:36.632Z,14.85
2023-03-31T12:43:35.687Z,14.79
2023-03-31T12:44:35.712Z,14.72
2023-03-31T12:45:35.722Z,14.65
2023-03-31T12:46:35.720Z,14.59
2023-03-31T12:47:36.625Z,14.54
2023-03-31T12:48:35.651Z,14.53
2023-03-31T12:49:35.604Z,14.47
2023-03-31T12:50:35.618Z,14.35
2023-03-31T12:51:35.606Z,14.18
2023-03-31T12:52:36.511Z,14.03
2023-03-31T12:53:35.564Z,13.83